Weather at Lincoln Airport

Public forecast

Using degrees Fahrenheit for public forecast. Weather courtesy of forecast.io.

Current aviation weather report (METAR) for Lincoln Airport

2024/06/20 23:54 (retrieved 50 minutes ago)

KLNK 202354Z 17012KT 10SM FEW065 31/21 A3011 RMK AO2 SLP184 T03110211 10322 20261 58020

Closest aviation forecast (TAF) to Lincoln Airport

Forecast is more than 6 hours old.

Closest forecast is Offutt Air Force Base, 41.8 nm (77.4 km) ENE.

2024/06/20 18:12 (retrieved 7 hours ago)

TAF KOFF 201800Z 2018/2124 14009KT 9999 BKN015 QNH3016INS BECMG 2021/2022 14009KT 9999 BKN020 QNH3009INS TEMPO 2102/2104 12010G15KT 9999 -SHRA BKN015 OVC020 BECMG 2105/2106 VRB06KT 9999 SCT020 SCT060 QNH3011INS BECMG 2113/2114 18010G15KT 9999 BKN030 OVC100 QNH3014INS BECMG 2117/2118 18015G25KT 9999 BKN030 OVC100 QNH3001INS TX31/2118Z TN21/2110Z